createdAt,value
2018-06-14T00:01:46.074Z,39.35
2018-06-14T00:04:20.062Z,39.69
2018-06-14T00:06:53.012Z,40.15
2018-06-14T00:09:23.562Z,40.10
2018-06-14T00:11:55.961Z,39.12
2018-06-14T00:14:26.569Z,39.75
2018-06-14T00:16:58.948Z,40.51
2018-06-14T00:19:31.303Z,39.89
2018-06-14T00:22:02.704Z,40.43
2018-06-14T00:24:34.112Z,39.31
2018-06-14T00:27:05.605Z,39.60
2018-06-14T00:29:37.055Z,39.45
2018-06-14T00:32:09.378Z,38.94
2018-06-14T00:34:41.400Z,39.29
2018-06-14T00:37:12.814Z,39.23
2018-06-14T00:39:44.256Z,39.69
2018-06-14T00:42:16.476Z,39.30
2018-06-14T00:44:47.045Z,39.38
2018-06-14T00:47:18.409Z,39.87
2018-06-14T00:49:51.642Z,40.17
2018-06-14T00:52:22.777Z,40.24
2018-06-14T00:54:55.217Z,40.48
2018-06-14T00:57:29.430Z,40.69
2018-06-14T01:00:04.300Z,40.46
2018-06-14T01:02:35.441Z,39.67
2018-06-14T01:05:08.117Z,39.66
2018-06-14T01:07:39.569Z,40.00
2018-06-14T01:10:10.828Z,39.70
2018-06-14T01:12:43.440Z,39.71
2018-06-14T01:15:17.692Z,40.40
2018-06-14T01:17:53.746Z,40.45
2018-06-14T01:20:26.171Z,40.35
2018-06-14T01:22:57.799Z,39.96
2018-06-14T01:25:41.151Z,39.67
2018-06-14T01:28:14.249Z,39.91
2018-06-14T01:30:46.645Z,40.27
2018-06-14T01:33:18.264Z,40.94
2018-06-14T01:35:54.089Z,40.84
2018-06-14T01:38:26.754Z,40.82
2018-06-14T01:40:58.210Z,40.63
2018-06-14T01:43:30.508Z,39.63
2018-06-14T01:46:01.053Z,38.99
2018-06-14T01:48:32.633Z,40.14
2018-06-14T01:51:04.067Z,40.95
2018-06-14T01:53:36.360Z,41.47
2018-06-14T01:56:08.742Z,41.43
2018-06-14T01:58:40.001Z,40.81
2018-06-14T02:01:11.444Z,39.98
2018-06-14T02:03:43.798Z,39.92
2018-06-14T02:06:17.158Z,40.69
2018-06-14T02:08:48.677Z,40.98
2018-06-14T02:11:21.397Z,40.98
2018-06-14T02:13:52.810Z,40.68
2018-06-14T02:16:24.037Z,41.36
2018-06-14T02:18:57.439Z,41.55
2018-06-14T02:21:30.216Z,40.88
2018-06-14T02:24:02.097Z,41.17
2018-06-14T02:26:34.218Z,40.74
2018-06-14T02:29:07.610Z,41.12
2018-06-14T02:31:39.864Z,41.41
2018-06-14T02:34:11.317Z,41.72
2018-06-14T02:36:43.865Z,41.57
2018-06-14T02:39:15.337Z,42.00
2018-06-14T02:41:48.294Z,41.69
2018-06-14T02:44:18.910Z,40.66
2018-06-14T02:46:51.570Z,41.54
2018-06-14T02:49:22.987Z,41.55
2018-06-14T02:51:55.256Z,41.19
2018-06-14T02:54:27.488Z,41.09
2018-06-14T02:56:59.321Z,41.82
2018-06-14T02:59:32.503Z,41.31
2018-06-14T03:02:04.818Z,40.96
2018-06-14T03:04:36.292Z,40.49
2018-06-14T03:07:08.664Z,41.56
2018-06-14T03:09:41.950Z,41.52
2018-06-14T03:12:13.337Z,42.48
2018-06-14T03:14:44.576Z,43.15
2018-06-14T03:17:16.013Z,43.65
2018-06-14T03:19:47.557Z,43.33
2018-06-14T03:22:20.598Z,43.71
2018-06-14T03:24:52.041Z,43.34
2018-06-14T03:27:23.445Z,43.86
2018-06-14T03:29:54.893Z,43.88
2018-06-14T03:32:27.157Z,44.29
2018-06-14T03:34:58.567Z,44.45
2018-06-14T03:37:30.001Z,44.23
2018-06-14T03:40:02.612Z,44.48
2018-06-14T03:42:38.944Z,44.81
2018-06-14T03:45:17.941Z,45.14
2018-06-14T03:47:51.385Z,45.53
2018-06-14T03:50:23.017Z,44.85
2018-06-14T03:52:54.974Z,45.05
2018-06-14T03:55:28.314Z,45.18
2018-06-14T03:57:59.876Z,45.29
2018-06-14T04:00:33.007Z,44.44
2018-06-14T04:03:05.396Z,43.83
2018-06-14T04:05:37.045Z,43.84
2018-06-14T04:08:09.054Z,44.10
2018-06-14T04:10:41.385Z,43.20
2018-06-14T04:15:48.832Z,42.92
2018-06-14T04:18:21.197Z,42.11
2018-06-14T04:20:53.431Z,41.34
2018-06-14T04:23:26.045Z,41.94
2018-06-14T04:25:58.296Z,41.18
2018-06-14T04:28:29.643Z,40.29
2018-06-14T04:31:01.827Z,39.97
2018-06-14T04:33:33.894Z,39.83
2018-06-14T04:36:05.750Z,39.88
2018-06-14T04:41:20.348Z,40.60
2018-06-14T04:43:51.587Z,39.85
2018-06-14T04:46:23.715Z,39.20
2018-06-14T04:48:56.147Z,38.25
2018-06-14T04:51:27.509Z,37.38
2018-06-14T04:54:00.782Z,36.50
2018-06-14T04:56:32.854Z,35.63
2018-06-14T04:59:05.658Z,35.20
2018-06-14T05:01:39.447Z,34.41
2018-06-14T05:04:11.739Z,33.65
2018-06-14T05:06:43.429Z,34.06
2018-06-14T05:09:14.897Z,33.22
2018-06-14T05:11:46.229Z,33.12
2018-06-14T05:14:19.767Z,32.25
2018-06-14T05:16:50.891Z,30.92
2018-06-14T05:19:22.403Z,30.66
2018-06-14T05:21:53.753Z,30.08
2018-06-14T05:24:25.005Z,30.61
2018-06-14T05:26:56.919Z,29.72
2018-06-14T05:29:29.288Z,29.79
2018-06-14T05:32:01.945Z,29.16
2018-06-14T05:34:37.273Z,29.71
2018-06-14T05:37:09.931Z,30.71
2018-06-14T05:39:42.444Z,29.51
2018-06-14T05:42:14.742Z,29.40
2018-06-14T05:44:46.340Z,28.83
2018-06-14T05:47:19.006Z,28.73
2018-06-14T05:49:50.438Z,29.16
2018-06-14T05:52:27.168Z,29.22
2018-06-14T05:55:01.031Z,28.55
2018-06-14T05:57:33.414Z,28.76
2018-06-14T06:00:06.430Z,27.95
2018-06-14T06:02:39.006Z,27.62
2018-06-14T06:05:11.370Z,27.68
2018-06-14T06:07:44.089Z,27.91
2018-06-14T06:10:15.294Z,27.08
2018-06-14T06:12:47.193Z,26.93
2018-06-14T06:15:19.527Z,25.69
2018-06-14T06:17:50.873Z,26.87
2018-06-14T06:20:22.414Z,25.77
2018-06-14T06:22:55.490Z,25.90
2018-06-14T06:25:27.215Z,26.53
2018-06-14T06:27:59.410Z,26.66
2018-06-14T06:30:32.662Z,26.79
2018-06-14T06:33:04.127Z,26.61
2018-06-14T06:35:40.679Z,26.19
2018-06-14T06:38:12.775Z,26.83
2018-06-14T06:40:44.705Z,25.93
2018-06-14T06:43:18.411Z,26.60
2018-06-14T06:45:49.852Z,25.68
2018-06-14T06:48:21.812Z,25.94
2018-06-14T06:50:53.284Z,25.86
2018-06-14T06:53:25.702Z,25.81
2018-06-14T06:55:57.344Z,24.93
2018-06-14T06:58:28.796Z,24.34
2018-06-14T07:01:00.126Z,24.82
2018-06-14T07:03:32.010Z,23.46
2018-06-14T07:06:03.502Z,23.36
2018-06-14T07:08:36.648Z,23.97
2018-06-14T07:11:08.808Z,23.37
2018-06-14T07:13:42.773Z,23.31
2018-06-14T07:16:15.369Z,23.80
2018-06-14T07:18:46.551Z,23.98
2018-06-14T07:21:18.830Z,22.91
2018-06-14T07:23:50.919Z,23.58
2018-06-14T07:26:22.949Z,23.43
2018-06-14T07:28:55.280Z,23.06
2018-06-14T07:31:35.810Z,22.02
2018-06-14T07:34:07.577Z,22.17
2018-06-14T07:36:39.005Z,22.54
2018-06-14T07:39:14.219Z,23.00
2018-06-14T07:41:50.432Z,22.26
2018-06-14T07:44:25.747Z,20.94
2018-06-14T07:46:56.304Z,20.74
2018-06-14T07:49:29.421Z,20.81
2018-06-14T07:52:01.893Z,20.40
2018-06-14T07:54:33.844Z,19.98
2018-06-14T07:57:04.454Z,21.29
2018-06-14T07:59:36.784Z,22.12
2018-06-14T08:02:08.359Z,23.26
2018-06-14T08:04:39.945Z,24.10
2018-06-14T08:07:12.242Z,24.91
2018-06-14T08:09:44.615Z,25.13
2018-06-14T08:12:17.963Z,26.17
2018-06-14T08:14:50.998Z,24.39
2018-06-14T08:17:21.513Z,24.49
2018-06-14T08:19:53.874Z,25.31
2018-06-14T08:22:25.251Z,24.81
2018-06-14T08:24:59.209Z,25.07
2018-06-14T08:27:30.591Z,25.26
2018-06-14T08:30:06.223Z,25.32
2018-06-14T08:32:37.343Z,25.93
2018-06-14T08:35:08.963Z,26.02
2018-06-14T08:37:39.531Z,25.03
2018-06-14T08:40:11.385Z,25.01
2018-06-14T08:42:42.166Z,24.73
2018-06-14T08:45:15.202Z,24.56
2018-06-14T08:47:45.830Z,24.61
2018-06-14T08:50:16.611Z,21.92
2018-06-14T08:52:48.372Z,21.92
2018-06-14T08:55:20.183Z,22.72
2018-06-14T08:57:52.295Z,22.88
2018-06-14T09:00:23.784Z,23.91
2018-06-14T09:02:56.711Z,23.97
2018-06-14T09:05:27.231Z,23.51
2018-06-14T09:07:59.362Z,23.40
2018-06-14T09:10:33.023Z,22.55
2018-06-14T09:13:04.358Z,21.81
2018-06-14T09:15:40.247Z,21.92
2018-06-14T09:18:10.865Z,23.02
2018-06-14T09:20:43.468Z,22.71
2018-06-14T09:23:17.881Z,22.90
2018-06-14T09:25:51.879Z,23.40
2018-06-14T09:28:22.700Z,23.67
2018-06-14T09:30:54.982Z,23.81
2018-06-14T09:33:25.655Z,23.72
2018-06-14T09:35:58.842Z,24.14
2018-06-14T09:38:30.387Z,23.80
2018-06-14T09:41:02.558Z,22.92
2018-06-14T09:43:34.749Z,23.64
2018-06-14T09:46:05.281Z,23.23
2018-06-14T09:48:35.806Z,23.74
2018-06-14T09:51:06.760Z,24.25
2018-06-14T09:53:38.993Z,23.69
2018-06-14T09:56:10.670Z,23.57
2018-06-14T09:58:41.469Z,23.69
2018-06-14T10:01:11.971Z,23.36
2018-06-14T10:03:42.597Z,23.57
2018-06-14T10:06:16.608Z,22.58
2018-06-14T10:08:50.884Z,21.95
2018-06-14T10:11:22.862Z,21.35
2018-06-14T10:13:54.355Z,20.82
2018-06-14T10:16:25.020Z,22.33
2018-06-14T10:18:57.339Z,21.82
2018-06-14T10:21:39.801Z,22.49
2018-06-14T10:24:12.924Z,20.91
2018-06-14T10:26:45.938Z,21.52
2018-06-14T10:32:07.228Z,20.91
2018-06-14T10:34:38.409Z,21.02
2018-06-14T10:37:09.617Z,22.35
2018-06-14T10:39:41.486Z,22.33
2018-06-14T10:42:16.355Z,21.80
2018-06-14T10:44:52.125Z,21.41
2018-06-14T10:47:23.675Z,21.62
2018-06-14T10:49:54.463Z,21.62
2018-06-14T10:52:25.576Z,21.22
2018-06-14T10:54:55.977Z,21.13
2018-06-14T10:57:26.606Z,21.74
2018-06-14T10:59:57.776Z,21.62
2018-06-14T11:05:09.398Z,21.83
2018-06-14T11:07:44.757Z,21.93
2018-06-14T11:10:15.772Z,22.92
2018-06-14T11:12:52.190Z,23.28
2018-06-14T11:15:27.671Z,23.13
2018-06-14T11:18:01.226Z,22.87
2018-06-14T11:20:33.077Z,22.19
2018-06-14T11:23:07.343Z,21.67
2018-06-14T11:25:41.588Z,20.88
2018-06-14T11:28:16.543Z,21.10
2018-06-14T11:30:50.598Z,20.26
2018-06-14T11:33:24.347Z,21.28
2018-06-14T11:35:56.728Z,22.01
2018-06-14T11:38:29.729Z,21.61
2018-06-14T11:41:04.700Z,21.35
2018-06-14T11:43:35.835Z,20.13
2018-06-14T11:46:07.351Z,19.78
2018-06-14T11:48:39.774Z,20.07
2018-06-14T11:51:10.486Z,19.94
2018-06-14T11:53:41.695Z,19.37
2018-06-14T11:56:12.483Z,18.65
2018-06-14T11:58:43.696Z,20.15
2018-06-14T12:01:16.696Z,21.02
2018-06-14T12:03:50.535Z,20.68
2018-06-14T12:06:23.471Z,21.29
2018-06-14T12:08:53.989Z,20.79
2018-06-14T12:11:27.693Z,22.06
2018-06-14T12:14:11.307Z,20.91
2018-06-14T12:16:42.529Z,21.62
2018-06-14T12:19:13.048Z,21.64
2018-06-14T12:21:44.764Z,21.23
2018-06-14T12:24:16.400Z,20.71
2018-06-14T12:26:46.998Z,20.22
2018-06-14T12:29:17.747Z,20.95
2018-06-14T12:31:49.681Z,20.25
2018-06-14T12:34:20.183Z,19.99
2018-06-14T12:36:52.363Z,20.78
2018-06-14T12:39:27.492Z,21.52
2018-06-14T12:41:58.922Z,21.27
2018-06-14T12:44:30.139Z,20.58
2018-06-14T12:47:02.649Z,19.45
2018-06-14T12:49:33.073Z,20.59
2018-06-14T12:52:07.136Z,19.77
2018-06-14T12:54:38.422Z,19.55
2018-06-14T12:57:26.195Z,21.24
2018-06-14T12:59:57.565Z,20.79
2018-06-14T13:02:30.571Z,20.58
2018-06-14T13:05:04.303Z,21.18
2018-06-14T13:07:38.685Z,21.44
2018-06-14T13:10:11.911Z,20.56
2018-06-14T13:12:43.048Z,19.59
2018-06-14T13:15:17.264Z,19.63
2018-06-14T13:17:52.470Z,19.27
2018-06-14T13:20:23.734Z,19.68
2018-06-14T13:22:55.544Z,19.90
2018-06-14T13:25:26.615Z,20.00
2018-06-14T13:27:59.445Z,20.80
2018-06-14T13:30:29.978Z,21.44
2018-06-14T13:33:02.383Z,20.42
2018-06-14T13:35:34.752Z,19.96
2018-06-14T13:38:06.483Z,19.69
2018-06-14T13:40:41.887Z,19.47
2018-06-14T13:43:13.497Z,19.89
2018-06-14T13:45:45.467Z,19.27
2018-06-14T13:48:17.479Z,19.51
2018-06-14T13:50:49.944Z,19.18
2018-06-14T13:53:22.255Z,18.74
2018-06-14T13:55:54.176Z,19.50
2018-06-14T13:58:24.606Z,19.94
2018-06-14T14:00:58.187Z,19.70
2018-06-14T14:03:29.752Z,20.67
2018-06-14T14:06:00.830Z,20.13
2018-06-14T14:08:37.848Z,20.76
2018-06-14T14:11:08.404Z,19.91
2018-06-14T14:13:42.580Z,21.02
2018-06-14T14:16:20.330Z,20.44
2018-06-14T14:18:53.366Z,19.89
2018-06-14T14:21:24.051Z,19.54
2018-06-14T14:23:57.501Z,20.49
2018-06-14T14:26:32.029Z,19.10
2018-06-14T14:29:02.631Z,18.95
2018-06-14T14:31:34.207Z,19.04
2018-06-14T14:34:08.423Z,19.10
2018-06-14T14:36:42.641Z,18.55
2018-06-14T14:39:16.084Z,18.76
2018-06-14T14:41:52.391Z,18.90
2018-06-14T14:44:24.647Z,19.12
2018-06-14T14:46:57.071Z,18.10
2018-06-14T14:49:33.962Z,18.69
2018-06-14T14:52:09.932Z,18.89
2018-06-14T15:00:17.775Z,18.91
2018-06-14T15:02:58.216Z,18.10
2018-06-14T15:08:15.247Z,19.06
2018-06-14T15:10:56.576Z,19.20
2018-06-14T15:13:31.105Z,19.53
2018-06-14T15:16:06.651Z,19.74
2018-06-14T15:18:40.556Z,19.73
2018-06-14T15:21:18.331Z,19.66
2018-06-14T15:23:56.811Z,19.65
2018-06-14T15:26:38.253Z,20.42
2018-06-14T15:29:18.928Z,21.07
2018-06-14T15:31:52.665Z,21.12
2018-06-14T15:34:37.623Z,20.92
2018-06-14T15:37:16.555Z,22.32
2018-06-14T15:39:52.268Z,21.71
2018-06-14T15:42:30.378Z,22.37
2018-06-14T15:47:31.458Z,22.58
2018-06-14T15:50:06.901Z,22.37
2018-06-14T15:52:39.427Z,22.50
2018-06-14T15:55:22.416Z,21.66
2018-06-14T15:57:53.488Z,22.13
2018-06-14T16:00:28.423Z,22.06
2018-06-14T16:03:03.271Z,22.59
2018-06-14T16:05:33.850Z,21.70
2018-06-14T16:08:06.601Z,22.87
2018-06-14T16:10:39.454Z,22.73
2018-06-14T16:13:14.559Z,23.83
2018-06-14T16:15:51.146Z,23.29
2018-06-14T16:18:27.532Z,23.64
2018-06-14T16:20:59.367Z,24.17
2018-06-14T16:23:29.857Z,23.63
2018-06-14T16:26:03.159Z,23.66
2018-06-14T16:28:38.499Z,23.84
2018-06-14T16:31:13.538Z,23.51
2018-06-14T16:33:47.231Z,24.03
2018-06-14T16:36:19.131Z,25.05
2018-06-14T16:38:56.271Z,24.38
2018-06-14T16:41:34.172Z,24.62
2018-06-14T16:44:06.405Z,24.03
2018-06-14T16:46:39.888Z,24.32
2018-06-14T16:49:12.327Z,24.09
2018-06-14T16:51:44.197Z,24.24
2018-06-14T16:54:18.570Z,25.41
2018-06-14T16:56:49.224Z,25.59
2018-06-14T16:59:20.691Z,25.13
2018-06-14T17:01:51.464Z,25.69
2018-06-14T17:04:25.407Z,25.49
2018-06-14T17:06:58.283Z,24.93
2018-06-14T17:09:43.243Z,25.21
2018-06-14T17:12:13.724Z,25.06
2018-06-14T17:14:46.355Z,25.74
2018-06-14T17:17:18.761Z,25.67
2018-06-14T17:19:50.446Z,25.27
2018-06-14T17:22:23.282Z,24.98
2018-06-14T17:24:59.220Z,24.88
2018-06-14T17:27:29.860Z,25.96
2018-06-14T17:30:07.613Z,25.72
2018-06-14T17:32:43.267Z,25.68
2018-06-14T17:35:15.823Z,26.35
2018-06-14T17:37:49.822Z,26.65
2018-06-14T17:40:24.587Z,27.09
2018-06-14T17:42:58.946Z,26.67
2018-06-14T17:45:30.344Z,27.40
2018-06-14T17:48:05.306Z,27.17
2018-06-14T17:50:36.023Z,27.44
2018-06-14T17:53:09.407Z,27.14
2018-06-14T17:55:44.228Z,27.87
2018-06-14T17:58:22.453Z,28.28
2018-06-14T18:00:54.972Z,27.63
2018-06-14T18:03:30.120Z,27.29
2018-06-14T18:06:08.730Z,28.25
2018-06-14T18:08:44.431Z,28.13
2018-06-14T18:11:23.570Z,27.82
